Detall de PIREP

Printer-friendly versionPDF version

[2012/01/28 19:26:00]
Flight IATA:CT1024
Pilot Number:042
Company ICAO:CAT
Aircraft Type:B738/F
PAX:0
Departing Airport: KEWR
Destination Airport: CYYT
Alternate Airport:CYHZ
Online: VATSIM
Route:MERIT HFD J42 BOS J575 LEXAK
Flight Level:F350
No Slew and time accel
No pause
Crash detect
Detect pilot in Cockpit between each 30 and 45 minutes
19:26 Zero fuel Weight: 91661 Lbs, Fuel Weight: 46056 Lbs
19:26 VATSIM:KEWR 281851Z 20012G19KT 10SM SCT160 SCT200 08/M03 A2994 RMK AO2 SLP139 T00831028
19:26 VATSIM:CYYT 281900Z 13020G28KT 3/8SM R11/P6000FT/N R16/2400FT/N -FZRA FZFG VV002 M00/M00 A2915 REBLSN RMK FG8 PRESFR SLP879
19:26 VOICE CATALONIAN/BOEING TRANSPORT
19:28 Parking Brakes off
19:34 Take-off
19:34 Take off Weight: 136980 Lbs
19:34 Wind: 211º @ 011 Knots Heading: 205º
19:34 POS N40º 41´ 09´´ W074º 10´ 21´´
19:34 Gear Up: 164 Knots
19:34 Flaps:5 at 164 Knots
19:35 Flaps:4 at 192 Knots
19:35 Flaps:3 at 192 Knots
19:35 Flaps:2 at 197 Knots
19:36 Flaps:1 at 221 Knots
19:36 Flaps:0 at 247 Knots
19:49 Wind:183º@037 Knots Heading: 063º Ground Speed: 474 Knots Altitude 31148 ft
19:51 TOC
19:51 Fuel Weight: 41823 Lb
20:04 Wind:183º@037 Knots Heading: 070º Ground Speed: 461 Knots Altitude 35013 ft
20:19 Wind:183º@037 Knots Heading: 072º Ground Speed: 459 Knots Altitude 35013 ft
20:34 Wind:183º@037 Knots Heading: 063º Ground Speed: 464 Knots Altitude 35036 ft
20:49 Wind:309º@080 Knots Heading: 051º Ground Speed: 461 Knots Altitude 34885 ft
21:04 Wind:294º@115 Knots Heading: 050º Ground Speed: 499 Knots Altitude 34691 ft
21:13 TOD
21:13 Fuel Weight: 34650 Lb
21:19 Wind:291º@070 Knots Heading: 068º Ground Speed: 489 Knots Altitude 28723 ft
21:34 Wind:014º@003 Knots Heading: 074º Ground Speed: 347 Knots Altitude 13562 ft
21:38 Flaps:1 at 249 Knots
21:49 Wind:230º@037 Knots Heading: 081º Ground Speed: 228 Knots Altitude 3106 ft
21:55 Flaps:2 at 189 Knots
21:55 Flaps:3 at 187 Knots
21:56 Flaps:4 at 176 Knots
21:58 Flaps:5 at 151 Knots
22:00 Gear Down: 148 Knots
22:00 Flaps:6 at 148 Knots
22:00 Flaps:7 at 148 Knots
22:00 Flaps:8 at 146 Knots
22:03 TouchDown:Rate -307 ft/min Speed: 115 Knots
22:03 VATSIM:CYYT 282130Z 25019G26KT 12SM -DZ BKN007 OVC020 02/ RMK SF6SC2
22:04 Land
22:04 Wind:273º@019 Knots
22:04 Heading: 084º
22:04 Flight Duration: 02:30
22:04 Landing Weight: 123136 Lbs
22:04 POS N47º 37´ 28´´ W052º 44´ 46´´
22:05 Parking brakes on
22:05 Block to Block Duration: 02:37
22:05 Final Fuel: 31329 Lbls
22:05 Spent Fuel: 14726 Lbls
22:05 Flight Length: 910 NM
22:05 TOD Land Length: 274 NM

Exportar CSV

Powered by Drupal - Modified by Danger4k